Las Varillas, Argentina
Current Conditions -  °F | °C
As of 11:00 PM on Sunday 21 Dec 2014 (Local Time) from SACO Reporting Station
Scattered Clouds Scattered Clouds  
Wind Chill: 57°   Ceiling: Unl
Heat Index: 57°   Visibility: 6mi
Dew Point: 34°   Wind: 7mph
Humidity: 41%   Direction: 320°NW
Pressure: 30.12"   Gusts: NA
Location:  31.87°S, 62.72°W
Report Text: SACO 220200Z 32006KT 9999 FEW012 SCT02014/01 Q1020
Loading
Personal Weather Stations






























Interactive Weather Map New forecast layout! Learn more

10-Day Weather Forecast

Advertisements
Track Severe Weather on mobile